createdAt,value
2022-11-15T00:00:59.748Z,99168.34
2022-11-15T00:03:29.647Z,99165.59
2022-11-15T00:06:03.738Z,99157.53
2022-11-15T00:08:32.419Z,99166.75
2022-11-15T00:11:01.386Z,99163.09
2022-11-15T00:13:29.897Z,99158.59
2022-11-15T00:16:00.745Z,99158.50
2022-11-15T00:18:30.948Z,99155.94
2022-11-15T00:21:04.479Z,99158.44
2022-11-15T00:23:32.527Z,99152.91
2022-11-15T00:26:00.612Z,99157.13
2022-11-15T00:28:28.320Z,99157.97
2022-11-15T00:30:55.803Z,99156.84
2022-11-15T00:33:24.598Z,99161.72
2022-11-15T00:35:52.064Z,99161.81
2022-11-15T00:38:19.537Z,99160.09
2022-11-15T00:40:47.163Z,99157.25
2022-11-15T00:43:14.607Z,99158.28
2022-11-15T00:45:42.089Z,99156.38
2022-11-15T00:48:09.534Z,99156.19
2022-11-15T00:50:38.481Z,99149.16
2022-11-15T00:53:05.936Z,99145.44
2022-11-15T00:55:33.454Z,99155.81
2022-11-15T00:58:01.096Z,99148.38
2022-11-15T01:00:28.857Z,99151.91
2022-11-15T01:02:56.465Z,99156.00
2022-11-15T01:05:24.180Z,99148.75
2022-11-15T01:07:55.430Z,99159.06
2022-11-15T01:10:23.114Z,99156.94
2022-11-15T01:12:51.397Z,99154.22
2022-11-15T01:15:18.951Z,99147.53
2022-11-15T01:17:46.450Z,99157.06
2022-11-15T01:20:14.355Z,99159.16
2022-11-15T01:22:41.821Z,99154.38
2022-11-15T01:25:10.639Z,99152.19
2022-11-15T01:27:38.178Z,99154.22
2022-11-15T01:30:06.959Z,99147.44
2022-11-15T01:32:34.419Z,99148.88
2022-11-15T01:35:01.858Z,99139.34
2022-11-15T01:37:29.311Z,99143.41
2022-11-15T01:39:56.748Z,99142.50
2022-11-15T01:42:25.559Z,99134.06
2022-11-15T01:44:54.090Z,99130.06
2022-11-15T01:47:23.396Z,99123.34
2022-11-15T01:49:57.100Z,99113.31
2022-11-15T01:52:26.940Z,99116.75
2022-11-15T01:55:00.101Z,99107.38
2022-11-15T01:57:28.972Z,99102.66
2022-11-15T01:59:57.374Z,99106.84
2022-11-15T02:02:25.419Z,99108.06
2022-11-15T02:04:53.115Z,99108.56
2022-11-15T02:07:23.625Z,99113.22
2022-11-15T02:09:52.585Z,99111.78
2022-11-15T02:12:22.614Z,99103.88
2022-11-15T02:14:54.540Z,99103.22
2022-11-15T02:17:36.504Z,99107.78
2022-11-15T02:20:51.928Z,99098.63
2022-11-15T02:23:47.976Z,99109.81
2022-11-15T02:26:28.165Z,99103.13
2022-11-15T02:29:03.557Z,99102.28
2022-11-15T02:31:40.280Z,99103.66
2022-11-15T02:34:14.603Z,99107.84
2022-11-15T02:36:46.060Z,99103.66
2022-11-15T02:39:22.915Z,99101.78
2022-11-15T02:41:55.443Z,99100.44
2022-11-15T02:44:25.482Z,99093.22
2022-11-15T02:47:17.086Z,99093.41
2022-11-15T02:49:48.903Z,99085.50
2022-11-15T02:52:18.312Z,99092.34
2022-11-15T02:54:56.002Z,99088.72
2022-11-15T02:57:37.057Z,99075.75
2022-11-15T03:00:08.128Z,99081.47
2022-11-15T03:03:02.401Z,99079.94
2022-11-15T03:05:37.750Z,99076.97
2022-11-15T03:08:12.547Z,99077.84
2022-11-15T03:10:47.527Z,99073.25
2022-11-15T03:13:23.243Z,99075.63
2022-11-15T03:15:59.628Z,99078.81
2022-11-15T03:18:34.026Z,99079.66
2022-11-15T03:21:06.115Z,99087.38
2022-11-15T03:23:35.904Z,99093.16
2022-11-15T03:26:03.805Z,99087.25
2022-11-15T03:28:35.928Z,99085.53
2022-11-15T03:31:26.371Z,99096.28
2022-11-15T03:33:59.750Z,99103.13
2022-11-15T03:36:28.874Z,99097.53
2022-11-15T03:39:01.951Z,99086.44
2022-11-15T03:41:37.138Z,99094.16
2022-11-15T03:44:10.339Z,99085.44
2022-11-15T03:46:44.549Z,99085.19
2022-11-15T03:49:19.087Z,99088.00
2022-11-15T03:51:46.736Z,99075.44
2022-11-15T03:54:15.308Z,99081.91
2022-11-15T03:56:42.739Z,99077.63
2022-11-15T03:59:10.220Z,99064.44
2022-11-15T04:01:37.721Z,99067.16
2022-11-15T04:04:05.458Z,99070.69
2022-11-15T04:06:34.325Z,99068.56
2022-11-15T04:09:01.937Z,99060.03
2022-11-15T04:11:29.688Z,99060.66
2022-11-15T04:13:57.144Z,99057.03
2022-11-15T04:16:24.576Z,99052.53
2022-11-15T04:19:12.008Z,99058.09
2022-11-15T04:21:58.198Z,99057.03
2022-11-15T04:24:25.631Z,99059.34
2022-11-15T04:26:53.077Z,99059.97
2022-11-15T04:29:35.958Z,99056.94
2022-11-15T04:32:03.537Z,99065.00
2022-11-15T04:34:32.427Z,99070.91
2022-11-15T04:37:13.412Z,99065.34
2022-11-15T04:39:41.224Z,99066.28
2022-11-15T04:42:08.938Z,99053.25
2022-11-15T04:44:36.689Z,99056.09
2022-11-15T04:47:04.770Z,99065.88
2022-11-15T04:49:32.208Z,99052.94
2022-11-15T04:52:01.074Z,99056.16
2022-11-15T04:54:29.033Z,99059.06
2022-11-15T04:56:56.568Z,99058.00
2022-11-15T04:59:24.007Z,99057.56
2022-11-15T05:01:51.465Z,99051.81
2022-11-15T05:04:21.031Z,99050.41
2022-11-15T05:06:50.107Z,99050.16
2022-11-15T05:09:20.259Z,99061.72
2022-11-15T05:11:48.543Z,99048.47
2022-11-15T05:14:16.231Z,99041.34
2022-11-15T05:16:44.393Z,99042.91
2022-11-15T05:19:11.903Z,99050.91
2022-11-15T05:21:39.751Z,99046.13
2022-11-15T05:24:08.137Z,99050.63
2022-11-15T05:26:36.965Z,99045.84
2022-11-15T05:29:04.656Z,99045.72
2022-11-15T05:31:32.333Z,99042.38
2022-11-15T05:34:02.793Z,99049.13
2022-11-15T05:36:36.434Z,99042.81
2022-11-15T05:39:05.443Z,99046.59
2022-11-15T05:41:36.021Z,99041.84
2022-11-15T05:44:09.061Z,99039.72
2022-11-15T05:46:38.323Z,99033.25
2022-11-15T05:49:10.054Z,99038.47
2022-11-15T05:51:37.784Z,99030.69
2022-11-15T05:54:05.477Z,99042.03
2022-11-15T05:56:33.272Z,99046.19
2022-11-15T05:59:00.976Z,99041.91
2022-11-15T06:01:29.990Z,99039.94
2022-11-15T06:03:57.639Z,99049.59
2022-11-15T06:06:25.290Z,99043.09
2022-11-15T06:08:52.745Z,99043.59
2022-11-15T06:11:20.175Z,99044.53
2022-11-15T06:13:47.684Z,99048.94
2022-11-15T06:16:15.331Z,99047.44
2022-11-15T06:18:44.154Z,99049.75
2022-11-15T06:21:11.649Z,99052.38
2022-11-15T06:23:39.086Z,99061.31
2022-11-15T06:26:06.901Z,99050.75
2022-11-15T06:28:34.890Z,99058.00
2022-11-15T06:31:04.954Z,99059.72
2022-11-15T06:33:32.647Z,99065.28
2022-11-15T06:36:04.139Z,99069.63
2022-11-15T06:38:31.837Z,99069.56
2022-11-15T06:41:03.926Z,99069.03
2022-11-15T06:43:31.869Z,99070.94
2022-11-15T06:46:00.286Z,99073.19
2022-11-15T06:48:27.775Z,99076.50
2022-11-15T06:50:56.300Z,99075.97
2022-11-15T06:53:25.573Z,99078.00
2022-11-15T06:55:55.474Z,99086.13
2022-11-15T06:58:23.415Z,99092.88
2022-11-15T07:00:50.924Z,99094.69
2022-11-15T07:03:18.455Z,99097.34
2022-11-15T07:05:54.111Z,99100.38
2022-11-15T07:08:21.534Z,99100.16
2022-11-15T07:10:50.748Z,99096.28
2022-11-15T07:13:19.237Z,99098.34
2022-11-15T07:15:46.773Z,99093.75
2022-11-15T07:18:14.256Z,99092.78
2022-11-15T07:20:41.738Z,99101.09
2022-11-15T07:23:09.241Z,99102.44
2022-11-15T07:25:36.713Z,99109.00
2022-11-15T07:28:05.992Z,99101.84
2022-11-15T07:30:33.696Z,99116.28
2022-11-15T07:33:02.416Z,99117.34
2022-11-15T07:35:31.016Z,99120.09
2022-11-15T07:37:59.554Z,99127.28
2022-11-15T07:40:27.832Z,99116.28
2022-11-15T07:43:01.324Z,99127.69
2022-11-15T07:45:30.691Z,99122.25
2022-11-15T07:47:58.559Z,99122.09
2022-11-15T07:50:26.691Z,99125.13
2022-11-15T07:52:57.584Z,99129.16
2022-11-15T07:55:25.474Z,99130.66
2022-11-15T07:57:53.141Z,99126.34
2022-11-15T08:00:21.433Z,99135.41
2022-11-15T08:02:50.593Z,99129.22
2022-11-15T08:05:18.544Z,99135.06
2022-11-15T08:07:46.005Z,99140.00
2022-11-15T08:10:14.815Z,99132.59
2022-11-15T08:12:42.547Z,99128.50
2022-11-15T08:15:10.857Z,99125.59
2022-11-15T08:17:38.276Z,99125.94
2022-11-15T08:20:08.418Z,99129.28
2022-11-15T08:22:35.891Z,99128.44
2022-11-15T08:25:03.371Z,99125.75
2022-11-15T08:27:30.887Z,99129.78
2022-11-15T08:29:59.674Z,99131.00
2022-11-15T08:32:27.205Z,99129.38
2022-11-15T08:34:54.660Z,99135.03
2022-11-15T08:37:23.510Z,99130.50
2022-11-15T08:39:51.177Z,99129.28
2022-11-15T08:42:20.245Z,99128.00
2022-11-15T08:44:47.824Z,99133.28
2022-11-15T08:47:15.612Z,99130.00
2022-11-15T08:49:43.081Z,99133.41
2022-11-15T08:52:10.753Z,99119.84
2022-11-15T08:54:39.581Z,99123.28
2022-11-15T08:57:07.073Z,99125.06
2022-11-15T08:59:34.499Z,99123.75
2022-11-15T09:02:01.969Z,99120.81
2022-11-15T09:04:29.915Z,99125.72
2022-11-15T09:06:57.507Z,99118.59
2022-11-15T09:09:25.039Z,99113.84
2022-11-15T09:11:58.031Z,99113.97
2022-11-15T09:14:28.606Z,99112.25
2022-11-15T09:16:56.177Z,99118.47
2022-11-15T09:19:23.687Z,99097.94
2022-11-15T09:21:51.323Z,99100.50
2022-11-15T09:24:19.193Z,99106.16
2022-11-15T09:26:46.785Z,99101.75
2022-11-15T09:29:15.788Z,99099.44
2022-11-15T09:31:43.557Z,99097.06
2022-11-15T09:34:11.045Z,99091.06
2022-11-15T09:36:38.638Z,99095.91
2022-11-15T09:39:06.118Z,99096.25
2022-11-15T09:42:00.320Z,99093.03
2022-11-15T09:44:44.696Z,99095.91
2022-11-15T09:47:43.186Z,99087.59
2022-11-15T09:50:12.950Z,99093.34
2022-11-15T09:52:44.696Z,99093.03
2022-11-15T09:55:15.461Z,99098.38
2022-11-15T09:57:51.442Z,99092.50
2022-11-15T10:00:45.248Z,99082.34
2022-11-15T10:03:16.061Z,99085.44
2022-11-15T10:05:45.244Z,99079.56
2022-11-15T10:08:30.747Z,99074.25
2022-11-15T10:13:50.555Z,99069.22
2022-11-15T10:16:55.924Z,99056.16
2022-11-15T10:19:31.499Z,99053.91
2022-11-15T10:22:16.848Z,99047.38
2022-11-15T10:24:46.258Z,99035.91
2022-11-15T10:27:15.751Z,99024.91
2022-11-15T10:29:45.832Z,99026.22
2022-11-15T10:32:16.324Z,99029.28
2022-11-15T10:34:44.141Z,99022.69
2022-11-15T10:37:11.940Z,99018.31
2022-11-15T10:39:39.572Z,99023.38
2022-11-15T10:42:27.332Z,99005.28
2022-11-15T10:44:54.930Z,99014.06
2022-11-15T10:47:37.839Z,98998.69
2022-11-15T10:50:09.396Z,98999.19
2022-11-15T10:52:38.599Z,98998.94
2022-11-15T10:55:23.550Z,99002.69
2022-11-15T10:57:54.689Z,98993.34
2022-11-15T11:00:32.719Z,98995.47
2022-11-15T11:03:04.058Z,98991.69
2022-11-15T11:05:39.697Z,98993.91
2022-11-15T11:08:23.970Z,98991.59
2022-11-15T11:11:01.423Z,98991.09
2022-11-15T11:13:31.777Z,98987.19
2022-11-15T11:16:11.153Z,98991.69
2022-11-15T11:18:45.193Z,98977.22
2022-11-15T11:21:16.610Z,98982.84
2022-11-15T11:23:51.994Z,98984.94
2022-11-15T11:26:37.590Z,98968.78
2022-11-15T11:29:12.061Z,98963.69
2022-11-15T11:31:49.711Z,98962.59
2022-11-15T11:34:33.203Z,98966.09
2022-11-15T11:37:09.855Z,98956.00
2022-11-15T11:39:48.785Z,98943.97
2022-11-15T11:42:25.767Z,98941.50
2022-11-15T11:45:05.612Z,98939.22
2022-11-15T11:47:36.929Z,98938.38
2022-11-15T11:50:15.066Z,98934.38
2022-11-15T11:52:51.220Z,98929.97
2022-11-15T11:55:24.368Z,98917.94
2022-11-15T11:58:00.680Z,98923.69
2022-11-15T12:00:29.453Z,98920.50
2022-11-15T12:03:09.757Z,98920.25
2022-11-15T12:05:42.439Z,98927.78
2022-11-15T12:08:25.330Z,98926.09
2022-11-15T12:10:59.796Z,98926.34
2022-11-15T12:13:34.344Z,98939.63
2022-11-15T12:16:10.425Z,98939.03
2022-11-15T12:18:38.977Z,98942.16
2022-11-15T12:21:17.318Z,98937.81
2022-11-15T12:23:48.423Z,98929.38
2022-11-15T12:26:20.866Z,98928.44
2022-11-15T12:29:06.811Z,98927.72
2022-11-15T12:31:40.049Z,98936.78
2022-11-15T12:34:30.822Z,98926.56
2022-11-15T12:37:00.005Z,98924.63
2022-11-15T12:40:04.234Z,98919.00
2022-11-15T12:42:43.311Z,98918.44
2022-11-15T12:45:28.359Z,98917.09
2022-11-15T12:47:58.210Z,98907.03
2022-11-15T12:50:58.859Z,98884.03
2022-11-15T12:53:32.371Z,98881.31
2022-11-15T12:56:22.686Z,98869.13
2022-11-15T12:58:53.542Z,98866.47
2022-11-15T13:02:00.394Z,98856.97
2022-11-15T13:04:30.651Z,98858.09
2022-11-15T13:07:01.124Z,98855.75
2022-11-15T13:09:57.772Z,98852.47
2022-11-15T13:12:57.796Z,98845.53
2022-11-15T13:16:00.631Z,98838.25
2022-11-15T13:18:35.749Z,98834.19
2022-11-15T13:21:27.045Z,98834.94
2022-11-15T13:23:56.408Z,98825.53
2022-11-15T13:26:25.475Z,98826.75
2022-11-15T13:28:56.244Z,98826.34
2022-11-15T13:31:27.536Z,98814.06
2022-11-15T13:33:57.671Z,98812.78
2022-11-15T13:36:27.601Z,98818.38
2022-11-15T13:39:00.633Z,98811.41
2022-11-15T13:41:31.801Z,98805.03
2022-11-15T13:44:00.631Z,98806.97
2022-11-15T13:46:29.265Z,98806.50
2022-11-15T13:49:00.647Z,98814.19
2022-11-15T13:51:39.048Z,98797.13
2022-11-15T13:54:15.714Z,98801.88
2022-11-15T13:56:48.242Z,98797.78
2022-11-15T13:59:22.108Z,98795.94
2022-11-15T14:01:51.511Z,98786.22
2022-11-15T14:04:22.095Z,98788.75
2022-11-15T14:06:52.009Z,98784.50
2022-11-15T14:09:41.443Z,98773.41
2022-11-15T14:12:40.481Z,98767.84
2022-11-15T14:15:26.889Z,98758.81
2022-11-15T14:17:54.404Z,98756.13
2022-11-15T14:20:29.443Z,98751.00
2022-11-15T14:22:58.681Z,98750.66
2022-11-15T14:25:26.898Z,98741.78
2022-11-15T14:28:14.962Z,98733.75
2022-11-15T14:30:44.055Z,98727.56
2022-11-15T14:33:23.980Z,98724.97
2022-11-15T14:35:51.772Z,98721.81
2022-11-15T14:38:19.379Z,98718.06
2022-11-15T14:40:46.922Z,98707.72
2022-11-15T14:43:15.762Z,98706.03
2022-11-15T14:45:43.369Z,98705.41
2022-11-15T14:48:10.855Z,98699.69
2022-11-15T14:50:38.446Z,98699.09
2022-11-15T14:53:06.863Z,98679.88
2022-11-15T14:55:37.007Z,98684.84
2022-11-15T14:58:05.063Z,98672.22
2022-11-15T15:00:35.497Z,98673.06
2022-11-15T15:03:03.907Z,98680.34
2022-11-15T15:05:34.292Z,98669.03
2022-11-15T15:08:01.990Z,98660.28
2022-11-15T15:10:42.178Z,98660.41
2022-11-15T15:13:18.562Z,98660.78
2022-11-15T15:15:47.857Z,98660.50
2022-11-15T15:18:16.244Z,98656.38
2022-11-15T15:20:46.391Z,98647.41
2022-11-15T15:23:18.081Z,98648.72
2022-11-15T15:25:47.013Z,98643.50
2022-11-15T15:28:15.108Z,98639.47
2022-11-15T15:30:42.917Z,98630.34
2022-11-15T15:33:11.821Z,98631.31
2022-11-15T15:35:39.524Z,98620.25
2022-11-15T15:38:06.988Z,98621.75
2022-11-15T15:40:35.131Z,98612.97
2022-11-15T15:43:02.613Z,98611.88
2022-11-15T15:45:30.571Z,98607.75
2022-11-15T15:47:58.095Z,98610.53
2022-11-15T15:50:28.625Z,98605.06
2022-11-15T15:52:58.491Z,98598.38
2022-11-15T15:55:27.058Z,98591.94
2022-11-15T15:57:54.647Z,98597.63
2022-11-15T16:00:24.339Z,98599.47
2022-11-15T16:02:54.531Z,98594.75
2022-11-15T16:05:22.131Z,98592.78
2022-11-15T16:07:51.315Z,98587.56
2022-11-15T16:10:23.415Z,98586.34
2022-11-15T16:12:51.145Z,98587.81
2022-11-15T16:15:19.522Z,98572.88
2022-11-15T16:17:50.650Z,98577.59
2022-11-15T16:20:37.000Z,98576.38
2022-11-15T16:23:09.594Z,98576.84
2022-11-15T16:25:41.636Z,98567.50
2022-11-15T16:28:18.521Z,98563.00
2022-11-15T16:30:46.161Z,98568.06
2022-11-15T16:33:13.630Z,98561.91
2022-11-15T16:35:41.111Z,98571.78
2022-11-15T16:38:16.142Z,98556.56
2022-11-15T16:40:44.038Z,98555.72
2022-11-15T16:43:12.019Z,98559.25
2022-11-15T16:45:39.661Z,98555.19
2022-11-15T16:48:07.343Z,98557.38
2022-11-15T16:50:40.669Z,98559.97
2022-11-15T16:53:08.154Z,98546.97
2022-11-15T16:55:36.958Z,98546.72
2022-11-15T16:58:04.422Z,98548.91
2022-11-15T17:00:31.946Z,98543.31
2022-11-15T17:02:59.512Z,98537.81
2022-11-15T17:05:28.235Z,98537.47
2022-11-15T17:07:55.794Z,98536.25
2022-11-15T17:10:24.355Z,98539.13
2022-11-15T17:12:53.950Z,98542.22
2022-11-15T17:15:21.762Z,98529.66
2022-11-15T17:17:52.966Z,98528.56
2022-11-15T17:20:22.104Z,98532.81
2022-11-15T17:22:49.737Z,98533.34
2022-11-15T17:25:17.554Z,98528.22
2022-11-15T17:27:45.108Z,98526.31
2022-11-15T17:30:15.974Z,98533.22
2022-11-15T17:32:43.788Z,98529.00
2022-11-15T17:35:15.530Z,98531.53
2022-11-15T17:37:43.679Z,98534.94
2022-11-15T17:40:12.180Z,98525.94
2022-11-15T17:42:41.882Z,98524.81
2022-11-15T17:45:10.584Z,98523.88
2022-11-15T17:47:39.584Z,98528.63
2022-11-15T17:50:07.359Z,98525.06
2022-11-15T17:52:34.860Z,98526.31
2022-11-15T17:55:02.367Z,98525.34
2022-11-15T17:57:29.789Z,98521.06
2022-11-15T17:59:57.272Z,98517.06
2022-11-15T18:02:24.740Z,98506.38
2022-11-15T18:04:53.534Z,98503.69
2022-11-15T18:07:21.080Z,98512.81
2022-11-15T18:09:48.673Z,98516.81
2022-11-15T18:12:16.623Z,98501.38
2022-11-15T18:14:44.103Z,98506.25
2022-11-15T18:17:11.549Z,98496.53
2022-11-15T18:19:39.019Z,98498.22
2022-11-15T18:22:10.114Z,98502.72
2022-11-15T18:24:38.529Z,98521.69
2022-11-15T18:27:07.248Z,98523.34
2022-11-15T18:29:37.621Z,98527.25
2022-11-15T18:32:11.258Z,98527.25
2022-11-15T18:34:38.986Z,98519.38
2022-11-15T18:37:08.312Z,98522.63
2022-11-15T18:39:35.861Z,98510.47
2022-11-15T18:42:03.628Z,98505.88
2022-11-15T18:44:31.371Z,98501.94
2022-11-15T18:46:59.048Z,98502.94
2022-11-15T18:49:26.576Z,98498.06
2022-11-15T18:51:54.047Z,98498.88
2022-11-15T18:54:28.137Z,98498.41
2022-11-15T18:56:58.276Z,98483.47
2022-11-15T18:59:27.524Z,98487.38
2022-11-15T19:01:55.922Z,98489.09
2022-11-15T19:04:23.669Z,98484.94
2022-11-15T19:06:52.813Z,98477.66
2022-11-15T19:09:20.717Z,98477.28
2022-11-15T19:11:51.269Z,98473.28
2022-11-15T19:14:19.589Z,98476.91
2022-11-15T19:16:52.013Z,98466.91
2022-11-15T19:19:21.021Z,98472.50
2022-11-15T19:21:48.982Z,98477.69
2022-11-15T19:24:16.456Z,98478.75
2022-11-15T19:26:45.042Z,98469.97
2022-11-15T19:29:14.702Z,98470.72
2022-11-15T19:31:42.676Z,98463.03
2022-11-15T19:34:10.377Z,98460.81
2022-11-15T19:36:39.781Z,98468.78
2022-11-15T19:39:09.834Z,98465.59
2022-11-15T19:41:38.843Z,98466.22
2022-11-15T19:44:07.036Z,98464.03
2022-11-15T19:46:36.129Z,98459.47
2022-11-15T19:49:03.748Z,98456.66
2022-11-15T19:51:31.760Z,98451.19
2022-11-15T19:54:01.254Z,98457.50
2022-11-15T19:56:28.776Z,98461.88
2022-11-15T19:58:57.439Z,98467.72
2022-11-15T20:01:26.881Z,98465.38
2022-11-15T20:03:58.710Z,98463.31
2022-11-15T20:06:28.307Z,98456.66
2022-11-15T20:08:55.875Z,98455.44
2022-11-15T20:11:23.689Z,98449.47
2022-11-15T20:13:51.475Z,98445.09
2022-11-15T20:16:21.177Z,98438.28
2022-11-15T20:18:49.594Z,98439.75
2022-11-15T20:21:18.915Z,98445.22
2022-11-15T20:23:47.578Z,98426.66
2022-11-15T20:26:15.824Z,98441.22
2022-11-15T20:28:44.610Z,98433.81
2022-11-15T20:31:12.689Z,98435.50
2022-11-15T20:33:40.224Z,98431.00
2022-11-15T20:36:10.780Z,98431.50
2022-11-15T20:38:39.880Z,98431.28
2022-11-15T20:41:07.794Z,98429.69
2022-11-15T20:43:35.419Z,98421.06
2022-11-15T20:46:02.990Z,98416.56
2022-11-15T20:48:31.741Z,98422.41
2022-11-15T20:51:07.358Z,98416.94
2022-11-15T20:53:34.908Z,98419.50
2022-11-15T20:56:08.950Z,98413.78
2022-11-15T20:58:37.376Z,98408.19
2022-11-15T21:01:05.256Z,98410.88
2022-11-15T21:03:33.104Z,98398.00
2022-11-15T21:06:01.208Z,98402.25
2022-11-15T21:08:48.728Z,98404.31
2022-11-15T21:11:35.137Z,98393.88
2022-11-15T21:14:07.712Z,98391.78
2022-11-15T21:16:37.116Z,98384.78
2022-11-15T21:19:04.640Z,98388.91
2022-11-15T21:21:32.151Z,98394.94
2022-11-15T21:23:59.653Z,98385.38
2022-11-15T21:26:28.838Z,98379.75
2022-11-15T21:28:56.320Z,98379.28
2022-11-15T21:31:25.016Z,98385.47
2022-11-15T21:33:52.734Z,98376.75
2022-11-15T21:36:20.390Z,98380.25
2022-11-15T21:38:47.882Z,98379.75
2022-11-15T21:41:17.327Z,98371.03
2022-11-15T21:43:46.141Z,98371.88
2022-11-15T21:46:13.836Z,98366.06
2022-11-15T21:48:41.432Z,98364.97
2022-11-15T21:51:11.338Z,98362.16
2022-11-15T21:53:38.816Z,98360.13
2022-11-15T21:56:06.849Z,98361.44
2022-11-15T21:58:35.122Z,98357.94
2022-11-15T22:01:22.658Z,98355.13
2022-11-15T22:03:50.267Z,98360.97
2022-11-15T22:06:18.408Z,98358.06
2022-11-15T22:08:47.070Z,98348.09
2022-11-15T22:11:15.224Z,98343.81
2022-11-15T22:13:43.256Z,98342.47
2022-11-15T22:16:12.188Z,98340.34
2022-11-15T22:18:39.829Z,98340.06
2022-11-15T22:21:10.199Z,98338.00
2022-11-15T22:23:38.049Z,98335.94
2022-11-15T22:26:05.857Z,98334.22
2022-11-15T22:28:33.695Z,98322.56
2022-11-15T22:31:01.502Z,98321.16
2022-11-15T22:33:34.630Z,98325.63
2022-11-15T22:36:02.584Z,98326.84
2022-11-15T22:38:30.542Z,98330.00
2022-11-15T22:40:58.693Z,98310.97
2022-11-15T22:43:27.730Z,98311.75
2022-11-15T22:45:56.344Z,98312.03
2022-11-15T22:48:25.519Z,98310.56
2022-11-15T22:50:54.570Z,98313.09
2022-11-15T22:53:22.368Z,98314.81
2022-11-15T22:55:53.604Z,98310.31
2022-11-15T22:58:22.308Z,98302.56
2022-11-15T23:00:50.718Z,98297.44
2022-11-15T23:03:19.632Z,98304.47
2022-11-15T23:05:47.717Z,98300.63
2022-11-15T23:08:17.289Z,98298.78
2022-11-15T23:11:03.037Z,98295.28
2022-11-15T23:13:32.235Z,98291.03
2022-11-15T23:16:25.460Z,98279.50
2022-11-15T23:18:54.960Z,98278.00
2022-11-15T23:21:42.068Z,98279.22
2022-11-15T23:24:13.190Z,98278.75
2022-11-15T23:26:41.418Z,98270.38
2022-11-15T23:29:11.682Z,98276.56
2022-11-15T23:32:01.912Z,98273.41
2022-11-15T23:34:30.287Z,98271.50
2022-11-15T23:36:57.990Z,98264.28
2022-11-15T23:39:27.198Z,98264.88
2022-11-15T23:41:55.022Z,98271.47
2022-11-15T23:44:22.461Z,98274.34
2022-11-15T23:46:49.952Z,98271.94
2022-11-15T23:49:17.631Z,98267.69
2022-11-15T23:51:45.237Z,98255.34
2022-11-15T23:54:13.292Z,98259.97
2022-11-15T23:56:42.202Z,98257.06
2022-11-15T23:59:09.680Z,98261.44
